Missao Velha, Brazil
Current Conditions -  °F | °C
As of 7:00 PM on Friday 31 Oct 2014 (Local Time) from SBJU Reporting Station
Few Clouds Few Clouds  
Wind Chill: 90°   Ceiling: Unl
Heat Index: 90°   Visibility: 6mi
Dew Point: 55°   Wind: 3mph
Humidity: 31%   Direction: 60°ENE
Pressure: 29.94"   Gusts: NA
Location:  7.25°S, 39.14°W
Report Text: SBJU 312200Z 06003KT 9999 FEW022 32/13 Q1014
Loading
Personal Weather Stations






























Interactive Weather Map
Tropical Storm Tracking
New forecast layout! Learn more

10-Day Weather Forecast

Advertisements
Track Severe Weather on mobile